Flight Track Log - Related Links

Times and Time Zones

All times are in EDT time to prevent confusion due to time zone crossing. See the N3726K flight status page for this flight to view local times or setup timezone preferences in your user account.

Time Position Orientation Groundspeed Altitude Reporting Facility
EDT Latitude Longitude Course Direction KTS MPH feet Rate Location/Type
Mon 09:29:03 PM 41.4900 -90.4764 333° Northwest 136 157 3,400  Level Chicago Center
Mon 09:30:05 PM 41.5267 -90.5033 331° Northwest 145 167 4,300 871 Climbing Chicago Center
Mon 09:31:07 PM 41.5639 -90.5353 327° Northwest 152 175 5,200 774 Climbing Chicago Center
Mon 09:32:09 PM 41.6006 -90.5614 332° Northwest 152 175 5,900 341 Climbing Chicago Center
Mon 09:33:00 PM 41.8008 -90.7510 332° Northwest  Level Estimated
Mon 09:33:10 PM 41.6456 -90.5936 332° Northwest 175 201 5,900  Level Chicago Center
Mon 09:34:00 PM 41.8448 -90.7817 333° Northwest  Level FlightAware
Mon 09:34:12 PM 41.7025 -90.6322 333° Northwest 193 222 5,900  Level Chicago Center
Mon 09:35:14 PM 41.7536 -90.6661 334° Northwest 203 234 5,900  Level Chicago Center
Mon 09:36:16 PM 41.8033 -90.7019 332° Northwest 205 236 5,900  Level Chicago Center
Mon 09:37:18 PM 41.8531 -90.7389 331° Northwest 206 237 5,900  Level Chicago Center
Mon 09:38:19 PM 41.9039 -90.7739 333° Northwest 207 238 5,900  Level Chicago Center
Mon 09:39:21 PM 41.9639 -90.8169 332° Northwest 205 236 5,900  Level Chicago Center
Mon 09:40:23 PM 42.0133 -90.8544 331° Northwest 205 236 5,900  Level Chicago Center
Mon 09:41:25 PM 42.0650 -90.8892 333° Northwest 208 239 5,900  Level Chicago Center
Mon 09:42:26 PM 42.1150 -90.9253 332° Northwest 206 237 5,900  Level Chicago Center
Mon 09:43:28 PM 42.1653 -90.9614 332° Northwest 206 237 5,900  Level Chicago Center
Mon 09:44:30 PM 42.2158 -90.9969 332° Northwest 206 237 5,900  Level Chicago Center
Mon 09:45:32 PM 42.2764 -91.0408 332° Northwest 208 239 5,900  Level Chicago Center
Mon 09:46:33 PM 42.3258 -91.0764 332° Northwest 205 236 5,900  Level Chicago Center
Mon 09:47:35 PM 42.3753 -91.1133 331° Northwest 205 236 5,900  Level Chicago Center
Mon 09:48:36 PM 42.4258 -91.1489 333° Northwest 205 236 5,900  Level Chicago Center
Mon 09:49:38 PM 42.4750 -91.1844 332° Northwest 203 234 5,900  Level Chicago Center
Mon 09:50:40 PM 42.5344 -91.2292 331° Northwest 206 237 5,900  Level Chicago Center
Mon 09:51:41 PM 42.5836 -91.2644 332° Northwest 205 236 5,900  Level Chicago Center
Mon 09:52:43 PM 42.6333 -91.3003 332° Northwest 204 235 5,900 48 Level Chicago Center
Mon 09:53:45 PM 42.6828 -91.3369 331° Northwest 204 235 6,000 49 Climbing Chicago Center
Mon 09:54:46 PM 42.7314 -91.3728 332° Northwest 204 235 6,000  Level Chicago Center
Mon 09:55:48 PM 42.7908 -91.4172 331° Northwest 205 236 6,000  Level Chicago Center
Mon 09:56:49 PM 42.8394 -91.4531 332° Northwest 204 235 6,000  Level Chicago Center
Mon 09:57:51 PM 42.8883 -91.4894 331° Northwest 204 235 6,000  Level Chicago Center
Mon 09:58:52 PM 42.9372 -91.5256 332° Northwest 204 235 6,000  Level Chicago Center
Mon 09:59:54 PM 42.9869 -91.5619 332° Northwest 205 236 6,000  Level Chicago Center
Mon 10:00:55 PM 43.0456 -91.6064 331° Northwest 204 235 6,000  Level Chicago Center
Mon 10:01:57 PM 43.0942 -91.6425 332° Northwest 202 232 6,000  Level Chicago Center
Mon 10:02:31 PM 43.1250 -91.6628 334° Northwest 204 235 6,000  Level Minneapolis Center
Mon 10:03:32 PM 43.1747 -91.7000 331° Northwest 205 236 6,000  Level Minneapolis Center
Mon 10:04:33 PM 43.2231 -91.7369 331° Northwest 203 234 6,000  Level Minneapolis Center
Mon 10:06:35 PM 43.3258 -91.8139 331° Northwest 204 235 6,000  Level Minneapolis Center
Mon 10:07:36 PM 43.3753 -91.8506 332° Northwest 204 235 6,000  Level Minneapolis Center
Mon 10:08:37 PM 43.4283 -91.8911 331° Northwest 205 236 6,000  Level Minneapolis Center
Mon 10:09:38 PM 43.4775 -91.9283 331° Northwest 204 235 6,000  Level Minneapolis Center
Mon 10:10:39 PM 43.5267 -91.9656 331° Northwest 204 235 6,000  Level Minneapolis Center
Mon 10:11:40 PM 43.5800 -92.0058 331° Northwest 203 234 6,000  Level Minneapolis Center
Mon 10:12:41 PM 43.6297 -92.0439 331° Northwest 206 237 6,000  Level Minneapolis Center
Mon 10:13:42 PM 43.6797 -92.0817 331° Northwest 208 239 6,000  Level Minneapolis Center
Mon 10:14:43 PM 43.7325 -92.1219 331° Northwest 204 235 6,000  Level Minneapolis Center
Mon 10:15:44 PM 43.7817 -92.1594 331° Northwest 203 234 6,000  Level Minneapolis Center
Mon 10:16:46 PM 43.8317 -92.1983 331° Northwest 207 238 6,000  Level Minneapolis Center
Mon 10:17:47 PM 43.8853 -92.2389 331° Northwest 207 238 6,000  Level Minneapolis Center
Mon 10:18:48 PM 43.9350 -92.2767 331° Northwest 206 237 6,000  Level Minneapolis Center
Mon 10:19:49 PM 43.9881 -92.3194 330° Northwest 205 236 6,000  Level Minneapolis Center
Mon 10:20:50 PM 44.0381 -92.3564 332° Northwest 206 237 6,000  Level Minneapolis Center
Mon 10:21:51 PM 44.0869 -92.3950 330° Northwest 206 237 6,000  Level Minneapolis Center
Mon 10:22:52 PM 44.1408 -92.4361 331° Northwest 207 238 6,000  Level Minneapolis Center
Mon 10:23:53 PM 44.1900 -92.4747 331° Northwest 207 238 6,000  Level Minneapolis Center
Mon 10:24:54 PM 44.2400 -92.5128 331° Northwest 210 242 6,000  Level Minneapolis Center
Mon 10:25:55 PM 44.2931 -92.5547 330° Northwest 204 235 6,000  Level Minneapolis Center
Mon 10:26:56 PM 44.3425 -92.5925 331° Northwest 204 235 6,000  Level Minneapolis Center
Mon 10:27:57 PM 44.3867 -92.6267 331° Northwest 204 235 6,000  Level Minneapolis Center
Mon 10:28:58 PM 44.4356 -92.6664 330° Northwest 207 238 6,000 -148 Level Minneapolis Center
Mon 10:29:59 PM 44.4944 -92.7117 331° Northwest 202 232 5,700 -393 Descending Minneapolis Center
Mon 10:31:00 PM 44.5464 -92.7522 331° Northwest 212 244 5,200 -492 Descending Minneapolis Center
Mon 10:32:01 PM 44.5953 -92.7911 330° Northwest 205 236 4,700 -492 Descending Minneapolis Center
Mon 10:33:02 PM 44.6428 -92.8283 331° Northwest 197 227 4,200 -344 Descending Minneapolis Center
Mon 10:34:03 PM 44.6933 -92.8686 330° Northwest 208 239 4,000 -295 Descending Minneapolis Center
Mon 10:35:04 PM 44.7422 -92.9075 331° Northwest 205 236 3,600 -488 Descending Minneapolis Center
Mon 10:36:06 PM 44.7925 -92.9469 331° Northwest 209 241 3,000 -537 Descending Minneapolis Center
Mon 10:37:07 PM 44.8467 -92.9744 340° North 212 244 2,500 -246 Descending Minneapolis Center
Mon 10:38:08 PM 44.8975 -92.9956 344° North 193 222 2,500 -246 Level Minneapolis Center
Mon 10:39:09 PM 44.9531 -93.0242 340° North 179 206 2,000 -492 Descending Minneapolis Center
Mon 10:40:10 PM 44.9650 -93.0667 292° West 140 161 1,500 -492 Descending Minneapolis Center
Mon 10:41:11 PM 44.9447 -93.0717 190° South 116 133 1,000 -492 Descending Minneapolis Center
Mon 10:43:00 PM 44.9333 -93.0500 90° East  Level FlightAware

Login

Don't have an account? Register now (free) for customized features, flight alerts, and more!